createdAt,value
2022-11-30T00:01:10.096Z,4.90
2022-11-30T00:03:36.698Z,4.90
2022-11-30T00:06:08.524Z,4.90
2022-11-30T00:08:35.254Z,4.90
2022-11-30T00:11:08.234Z,4.90
2022-11-30T00:13:34.804Z,4.90
2022-11-30T00:16:01.659Z,4.90
2022-11-30T00:18:28.237Z,4.90
2022-11-30T00:20:55.386Z,4.90
2022-11-30T00:23:21.916Z,4.90
2022-11-30T00:25:48.459Z,4.90
2022-11-30T00:28:15.040Z,4.90
2022-11-30T00:30:41.730Z,4.90
2022-11-30T00:33:08.308Z,4.90
2022-11-30T00:35:34.833Z,4.90
2022-11-30T00:38:03.074Z,4.90
2022-11-30T00:40:29.671Z,4.80
2022-11-30T00:42:56.441Z,4.80
2022-11-30T00:45:22.971Z,4.80
2022-11-30T00:47:49.554Z,5.10
2022-11-30T00:50:16.166Z,4.80
2022-11-30T00:52:42.689Z,4.70
2022-11-30T00:55:09.558Z,4.80
2022-11-30T00:57:36.106Z,4.70
2022-11-30T01:00:05.305Z,4.60
2022-11-30T01:02:31.888Z,4.60
2022-11-30T01:04:58.457Z,4.60
2022-11-30T01:07:25.029Z,4.60
2022-11-30T01:09:51.592Z,4.60
2022-11-30T01:12:18.145Z,4.60
2022-11-30T01:14:44.993Z,4.60
2022-11-30T01:17:11.810Z,4.70
2022-11-30T01:19:38.430Z,4.60
2022-11-30T01:22:05.052Z,4.60
2022-11-30T01:24:31.712Z,4.60
2022-11-30T01:26:58.260Z,4.60
2022-11-30T01:29:24.804Z,4.60
2022-11-30T01:31:51.390Z,4.60
2022-11-30T01:34:17.927Z,4.60
2022-11-30T01:36:44.596Z,4.60
2022-11-30T01:39:11.301Z,4.60
2022-11-30T01:41:37.924Z,4.70
2022-11-30T01:44:07.582Z,4.70
2022-11-30T01:46:38.560Z,4.70
2022-11-30T01:49:18.084Z,4.70
2022-11-30T01:51:46.918Z,4.70
2022-11-30T01:54:16.763Z,4.70
2022-11-30T01:56:55.499Z,4.70
2022-11-30T01:59:24.000Z,4.70
2022-11-30T02:01:52.093Z,4.70
2022-11-30T02:04:26.425Z,4.70
2022-11-30T02:06:53.031Z,4.70
2022-11-30T02:09:21.957Z,4.70
2022-11-30T02:11:49.701Z,4.70
2022-11-30T02:14:37.434Z,4.70
2022-11-30T02:17:47.907Z,4.70
2022-11-30T02:20:41.026Z,4.70
2022-11-30T02:23:41.663Z,4.70
2022-11-30T02:26:44.554Z,4.70
2022-11-30T02:29:23.233Z,4.70
2022-11-30T02:32:12.112Z,4.70
2022-11-30T02:34:42.105Z,4.70
2022-11-30T02:37:11.320Z,4.70
2022-11-30T02:39:37.949Z,4.60
2022-11-30T02:42:10.591Z,4.20
2022-11-30T02:44:37.383Z,4.70
2022-11-30T02:47:12.421Z,4.70
2022-11-30T02:49:59.166Z,4.60
2022-11-30T02:52:28.062Z,4.70
2022-11-30T02:55:06.652Z,4.70
2022-11-30T02:57:33.809Z,4.70
2022-11-30T03:00:03.999Z,4.70
2022-11-30T03:02:30.689Z,4.70
2022-11-30T03:04:57.268Z,4.70
2022-11-30T03:07:23.969Z,4.70
2022-11-30T03:09:50.701Z,4.70
2022-11-30T03:12:17.286Z,4.70
2022-11-30T03:14:44.121Z,4.60
2022-11-30T03:17:10.832Z,4.60
2022-11-30T03:19:37.377Z,4.60
2022-11-30T03:22:03.964Z,4.60
2022-11-30T03:24:30.546Z,4.60
2022-11-30T03:26:57.093Z,4.50
2022-11-30T03:29:23.636Z,4.50
2022-11-30T03:31:50.168Z,4.50
2022-11-30T03:34:16.731Z,4.50
2022-11-30T03:36:43.275Z,4.50
2022-11-30T03:39:09.846Z,4.50
2022-11-30T03:41:36.737Z,4.50
2022-11-30T03:44:03.415Z,4.50
2022-11-30T03:46:30.073Z,4.50
2022-11-30T03:48:56.722Z,4.40
2022-11-30T03:51:23.336Z,4.40
2022-11-30T03:53:49.875Z,4.40
2022-11-30T03:56:16.832Z,4.40
2022-11-30T03:58:43.695Z,4.50
2022-11-30T04:01:16.533Z,4.40
2022-11-30T04:03:43.724Z,4.40
2022-11-30T04:06:12.174Z,4.30
2022-11-30T04:08:40.146Z,4.30
2022-11-30T04:11:07.581Z,4.30
2022-11-30T04:13:36.389Z,4.30
2022-11-30T04:16:04.051Z,4.30
2022-11-30T04:18:31.914Z,4.30
2022-11-30T04:21:00.234Z,4.30
2022-11-30T04:23:30.907Z,4.40
2022-11-30T04:25:57.960Z,4.30
2022-11-30T04:28:24.739Z,4.30
2022-11-30T04:30:53.587Z,4.30
2022-11-30T04:33:20.181Z,4.30
2022-11-30T04:35:49.901Z,4.30
2022-11-30T04:38:16.502Z,4.30
2022-11-30T04:40:43.920Z,4.30
2022-11-30T04:43:11.605Z,4.20
2022-11-30T04:45:38.564Z,4.20
2022-11-30T04:48:06.306Z,4.20
2022-11-30T04:50:33.286Z,4.20
2022-11-30T04:53:00.022Z,4.30
2022-11-30T04:55:27.245Z,4.20
2022-11-30T04:57:54.039Z,4.30
2022-11-30T05:00:20.816Z,4.10
2022-11-30T05:02:52.551Z,4.30
2022-11-30T05:05:19.875Z,4.30
2022-11-30T05:07:50.578Z,4.30
2022-11-30T05:10:17.293Z,4.30
2022-11-30T05:12:43.861Z,4.30
2022-11-30T05:15:10.737Z,4.30
2022-11-30T05:17:37.328Z,4.30
2022-11-30T05:20:04.451Z,4.30
2022-11-30T05:22:31.031Z,4.30
2022-11-30T05:24:57.590Z,4.30
2022-11-30T05:27:24.121Z,4.30
2022-11-30T05:29:50.648Z,4.20
2022-11-30T05:32:17.181Z,4.30
2022-11-30T05:34:50.798Z,4.30
2022-11-30T05:37:18.799Z,4.30
2022-11-30T05:39:45.375Z,4.30
2022-11-30T05:42:11.918Z,4.30
2022-11-30T05:44:38.463Z,4.30
2022-11-30T05:47:05.145Z,4.30
2022-11-30T05:49:31.752Z,4.40
2022-11-30T05:51:58.317Z,4.40
2022-11-30T05:54:24.905Z,4.40
2022-11-30T05:56:54.682Z,4.50
2022-11-30T05:59:22.413Z,4.40
2022-11-30T06:01:49.254Z,4.40
2022-11-30T06:04:15.909Z,4.50
2022-11-30T06:06:42.520Z,4.50
2022-11-30T06:09:09.193Z,4.50
2022-11-30T06:11:35.781Z,4.50
2022-11-30T06:14:02.444Z,4.50
2022-11-30T06:16:29.117Z,4.50
2022-11-30T06:18:55.720Z,4.40
2022-11-30T06:21:24.699Z,4.50
2022-11-30T06:23:52.565Z,4.50
2022-11-30T06:26:19.171Z,4.50
2022-11-30T06:28:48.616Z,4.50
2022-11-30T06:31:16.052Z,4.50
2022-11-30T06:33:42.827Z,4.60
2022-11-30T06:36:09.820Z,4.60
2022-11-30T06:38:36.438Z,4.60
2022-11-30T06:41:08.023Z,4.60
2022-11-30T06:43:39.093Z,4.60
2022-11-30T06:46:06.998Z,4.60
2022-11-30T06:48:34.645Z,4.60
2022-11-30T06:51:01.868Z,4.40
2022-11-30T06:53:28.431Z,4.70
2022-11-30T06:55:55.056Z,4.60
2022-11-30T06:58:21.735Z,4.60
2022-11-30T07:00:48.595Z,4.60
2022-11-30T07:03:15.575Z,4.60
2022-11-30T07:05:44.842Z,4.60
2022-11-30T07:08:15.553Z,4.60
2022-11-30T07:10:44.655Z,4.60
2022-11-30T07:13:12.510Z,4.60
2022-11-30T07:15:40.260Z,4.50
2022-11-30T07:18:07.473Z,4.50
2022-11-30T07:20:34.095Z,4.50
2022-11-30T07:23:20.973Z,4.50
2022-11-30T07:26:06.452Z,4.50
2022-11-30T07:28:34.601Z,4.50
2022-11-30T07:31:01.173Z,4.50
2022-11-30T07:33:27.732Z,4.50
2022-11-30T07:35:54.618Z,4.70
2022-11-30T07:38:21.171Z,4.40
2022-11-30T07:40:47.743Z,4.40
2022-11-30T07:43:14.332Z,4.80
2022-11-30T07:45:40.962Z,4.50
2022-11-30T07:48:09.425Z,4.50
2022-11-30T07:50:35.961Z,4.60
2022-11-30T07:53:02.518Z,4.60
2022-11-30T07:55:29.096Z,4.60
2022-11-30T07:57:55.630Z,4.60
2022-11-30T08:00:22.157Z,4.70
2022-11-30T08:02:50.697Z,4.70
2022-11-30T08:05:17.449Z,4.70
2022-11-30T08:07:45.776Z,4.50
2022-11-30T08:10:12.367Z,4.90
2022-11-30T08:12:39.021Z,4.80
2022-11-30T08:15:27.418Z,4.80
2022-11-30T08:17:55.009Z,4.80
2022-11-30T08:20:22.377Z,4.80
2022-11-30T08:22:49.616Z,4.80
2022-11-30T08:25:16.244Z,4.80
2022-11-30T08:27:42.849Z,4.70
2022-11-30T08:30:09.774Z,4.40
2022-11-30T08:32:36.341Z,4.80
2022-11-30T08:35:02.977Z,4.80
2022-11-30T08:37:29.510Z,4.90
2022-11-30T08:39:56.070Z,4.90
2022-11-30T08:42:22.604Z,5.00
2022-11-30T08:44:49.161Z,4.80
2022-11-30T08:47:15.802Z,5.00
2022-11-30T08:49:42.362Z,5.00
2022-11-30T08:52:16.903Z,5.00
2022-11-30T08:54:46.174Z,5.10
2022-11-30T08:57:17.633Z,5.20
2022-11-30T08:59:44.792Z,5.20
2022-11-30T09:02:13.969Z,5.20
2022-11-30T09:04:40.740Z,5.30
2022-11-30T09:07:07.528Z,5.20
2022-11-30T09:09:34.263Z,5.20
2022-11-30T09:12:00.991Z,5.20
2022-11-30T09:14:27.855Z,5.20
2022-11-30T09:16:55.092Z,5.20
2022-11-30T09:19:22.044Z,5.20
2022-11-30T09:21:51.983Z,5.20
2022-11-30T09:24:19.676Z,5.20
2022-11-30T09:26:46.526Z,5.20
2022-11-30T09:29:13.236Z,5.20
2022-11-30T09:31:39.788Z,5.20
2022-11-30T09:34:06.387Z,5.20
2022-11-30T09:36:33.974Z,5.20
2022-11-30T09:39:00.792Z,5.20
2022-11-30T09:42:09.776Z,5.30
2022-11-30T09:45:11.295Z,5.30
2022-11-30T09:48:19.258Z,5.30
2022-11-30T09:50:47.337Z,5.20
2022-11-30T09:53:30.752Z,5.20
2022-11-30T09:56:00.026Z,5.20
2022-11-30T09:58:49.321Z,5.30
2022-11-30T10:01:19.244Z,5.30
2022-11-30T10:03:46.823Z,5.20
2022-11-30T10:06:26.219Z,5.40
2022-11-30T10:09:06.614Z,5.40
2022-11-30T10:11:47.398Z,5.50
2022-11-30T10:14:32.309Z,5.60
2022-11-30T10:17:22.839Z,5.60
2022-11-30T10:20:24.023Z,5.60
2022-11-30T10:23:14.070Z,5.60
2022-11-30T10:25:52.618Z,5.60
2022-11-30T10:28:47.608Z,5.60
2022-11-30T10:31:16.228Z,5.60
2022-11-30T10:33:51.632Z,5.70
2022-11-30T10:36:34.620Z,5.60
2022-11-30T10:39:04.712Z,5.70
2022-11-30T10:41:39.465Z,5.70
2022-11-30T10:44:23.127Z,5.80
2022-11-30T10:46:57.780Z,5.70
2022-11-30T10:49:27.729Z,5.70
2022-11-30T10:51:59.952Z,5.70
2022-11-30T10:54:26.498Z,5.90
2022-11-30T10:56:53.086Z,5.90
2022-11-30T10:59:44.069Z,6.00
2022-11-30T11:02:34.376Z,6.00
2022-11-30T11:05:29.234Z,6.10
2022-11-30T11:08:06.855Z,6.10
2022-11-30T11:10:45.012Z,6.10
2022-11-30T11:13:17.503Z,5.90
2022-11-30T11:15:58.654Z,5.90
2022-11-30T11:18:30.802Z,5.90
2022-11-30T11:21:08.202Z,5.90
2022-11-30T11:23:37.909Z,6.00
2022-11-30T11:26:06.335Z,6.00
2022-11-30T11:28:35.848Z,6.00
2022-11-30T11:31:16.747Z,6.10
2022-11-30T11:33:54.061Z,6.10
2022-11-30T11:36:29.672Z,6.10
2022-11-30T11:38:57.213Z,6.20
2022-11-30T11:41:31.415Z,6.10
2022-11-30T11:44:09.993Z,6.10
2022-11-30T11:47:03.560Z,6.10
2022-11-30T11:49:34.357Z,6.00
2022-11-30T11:52:11.185Z,6.00
2022-11-30T11:54:51.533Z,6.10
2022-11-30T11:57:21.315Z,6.20
2022-11-30T11:59:54.693Z,6.20
2022-11-30T12:02:49.263Z,6.30
2022-11-30T12:05:24.324Z,6.20
2022-11-30T12:08:15.584Z,6.00
2022-11-30T12:11:09.912Z,5.90
2022-11-30T12:13:43.149Z,5.90
2022-11-30T12:16:15.932Z,5.90
2022-11-30T12:19:20.281Z,5.90
2022-11-30T12:22:12.267Z,5.90
2022-11-30T12:24:47.216Z,5.90
2022-11-30T12:27:33.412Z,5.90
2022-11-30T12:30:13.473Z,5.90
2022-11-30T12:33:05.538Z,5.90
2022-11-30T12:35:51.004Z,5.80
2022-11-30T12:38:31.926Z,5.80
2022-11-30T12:41:22.844Z,5.80
2022-11-30T12:44:20.958Z,5.70
2022-11-30T12:47:18.389Z,5.60
2022-11-30T12:50:11.571Z,5.60
2022-11-30T12:52:54.005Z,5.50
2022-11-30T12:55:45.823Z,5.40
2022-11-30T12:58:30.822Z,5.40
2022-11-30T13:01:12.103Z,5.30
2022-11-30T13:03:45.299Z,5.40
2022-11-30T13:06:21.053Z,5.30
2022-11-30T13:09:00.395Z,5.30
2022-11-30T13:11:36.632Z,5.40
2022-11-30T13:14:07.611Z,5.40
2022-11-30T13:16:34.745Z,5.40
2022-11-30T13:19:29.384Z,5.40
2022-11-30T13:22:03.776Z,5.40
2022-11-30T13:24:39.045Z,5.30
2022-11-30T13:27:31.473Z,5.30
2022-11-30T13:30:17.047Z,5.30
2022-11-30T13:32:59.374Z,5.20
2022-11-30T13:35:29.304Z,5.00
2022-11-30T13:38:34.655Z,4.90
2022-11-30T13:40:59.688Z,4.70
2022-11-30T13:43:34.281Z,4.70
2022-11-30T13:46:28.562Z,4.50
2022-11-30T13:49:21.118Z,4.40
2022-11-30T13:52:01.481Z,4.40
2022-11-30T13:54:50.311Z,4.30
2022-11-30T13:57:29.545Z,4.20
2022-11-30T13:59:57.072Z,4.20
2022-11-30T14:02:41.757Z,4.10
2022-11-30T14:05:17.446Z,4.00
2022-11-30T14:07:46.166Z,3.90
2022-11-30T14:10:28.167Z,3.80
2022-11-30T14:13:02.083Z,3.60
2022-11-30T14:15:40.650Z,3.50
2022-11-30T14:18:10.078Z,3.50
2022-11-30T14:20:51.613Z,3.30
2022-11-30T14:23:49.646Z,3.40
2022-11-30T14:26:23.358Z,3.20
2022-11-30T14:29:00.793Z,3.00
2022-11-30T14:31:31.813Z,3.00
2022-11-30T14:34:11.764Z,2.90
2022-11-30T14:36:43.511Z,2.90
2022-11-30T14:39:26.600Z,2.90
2022-11-30T14:41:53.967Z,2.80
2022-11-30T14:44:20.550Z,2.80
2022-11-30T14:46:47.140Z,2.80
2022-11-30T14:49:24.114Z,2.70
2022-11-30T14:52:13.202Z,2.50
2022-11-30T14:55:12.244Z,2.40
2022-11-30T14:58:07.059Z,2.30
2022-11-30T15:00:39.678Z,2.10
2022-11-30T15:03:18.099Z,2.10
2022-11-30T15:05:44.771Z,2.00
2022-11-30T15:08:16.709Z,2.00
2022-11-30T15:10:43.618Z,1.70
2022-11-30T15:13:15.362Z,2.00
2022-11-30T15:15:55.850Z,2.00
2022-11-30T15:18:25.075Z,2.10
2022-11-30T15:20:57.517Z,2.10
2022-11-30T15:23:24.273Z,2.10
2022-11-30T15:26:03.895Z,2.10
2022-11-30T15:28:41.262Z,2.20
2022-11-30T15:31:13.209Z,2.20
2022-11-30T15:33:50.220Z,2.20
2022-11-30T15:36:34.018Z,2.20
2022-11-30T15:39:04.257Z,2.20
2022-11-30T15:41:33.038Z,2.20
2022-11-30T15:43:59.661Z,2.10
2022-11-30T15:46:53.260Z,2.10
2022-11-30T15:49:25.795Z,2.10
2022-11-30T15:52:10.953Z,1.40
2022-11-30T15:54:58.708Z,2.10
2022-11-30T15:57:27.407Z,2.10
2022-11-30T16:00:18.658Z,2.10
2022-11-30T16:02:45.348Z,2.10
2022-11-30T16:05:14.562Z,2.10
2022-11-30T16:07:52.577Z,2.10
2022-11-30T16:10:23.538Z,2.00
2022-11-30T16:12:51.678Z,2.00
2022-11-30T16:15:29.394Z,1.90
2022-11-30T16:18:15.845Z,2.00
2022-11-30T16:20:44.357Z,2.00
2022-11-30T16:23:15.022Z,2.10
2022-11-30T16:25:43.468Z,2.10
2022-11-30T16:28:11.764Z,2.10
2022-11-30T16:30:39.278Z,2.10
2022-11-30T16:33:06.058Z,2.20
2022-11-30T16:35:39.302Z,2.30
2022-11-30T16:38:06.587Z,2.30
2022-11-30T16:40:38.420Z,2.20
2022-11-30T16:43:05.735Z,1.90
2022-11-30T16:45:36.370Z,3.60
2022-11-30T16:48:03.185Z,2.30
2022-11-30T16:50:31.370Z,2.30
2022-11-30T16:52:58.279Z,2.30
2022-11-30T16:55:28.951Z,2.30
2022-11-30T16:57:55.659Z,2.30
2022-11-30T17:00:22.751Z,2.30
2022-11-30T17:02:56.803Z,2.30
2022-11-30T17:05:23.877Z,2.30
2022-11-30T17:07:50.629Z,2.20
2022-11-30T17:10:17.715Z,2.20
2022-11-30T17:12:44.389Z,2.20
2022-11-30T17:15:20.922Z,2.30
2022-11-30T17:17:48.101Z,2.30
2022-11-30T17:20:16.826Z,2.30
2022-11-30T17:22:44.611Z,2.40
2022-11-30T17:25:20.659Z,2.50
2022-11-30T17:27:48.551Z,2.50
2022-11-30T17:30:18.006Z,2.50
2022-11-30T17:32:44.663Z,2.50
2022-11-30T17:35:11.884Z,2.40
2022-11-30T17:37:38.756Z,2.40
2022-11-30T17:40:06.940Z,2.40
2022-11-30T17:42:33.689Z,2.50
2022-11-30T17:45:00.273Z,2.50
2022-11-30T17:47:26.822Z,2.40
2022-11-30T17:49:53.432Z,2.40
2022-11-30T17:52:20.018Z,2.20
2022-11-30T17:54:46.927Z,2.40
2022-11-30T17:57:13.825Z,2.40
2022-11-30T17:59:40.539Z,2.30
2022-11-30T18:02:09.242Z,2.40
2022-11-30T18:04:35.940Z,2.40
2022-11-30T18:07:02.571Z,2.40
2022-11-30T18:09:29.168Z,2.50
2022-11-30T18:11:55.726Z,2.50
2022-11-30T18:14:22.357Z,2.50
2022-11-30T18:16:49.001Z,2.50
2022-11-30T18:19:15.613Z,2.50
2022-11-30T18:21:46.168Z,2.50
2022-11-30T18:24:12.798Z,2.40
2022-11-30T18:26:40.124Z,2.50
2022-11-30T18:29:07.246Z,2.50
2022-11-30T18:31:34.121Z,2.40
2022-11-30T18:34:03.098Z,2.50
2022-11-30T18:36:30.792Z,2.50
2022-11-30T18:38:57.746Z,2.50
2022-11-30T18:41:26.373Z,2.50
2022-11-30T18:43:53.577Z,2.50
2022-11-30T18:46:20.317Z,2.50
2022-11-30T18:48:50.304Z,2.50
2022-11-30T18:51:19.805Z,2.50
2022-11-30T18:53:46.959Z,2.40
2022-11-30T18:56:19.106Z,2.30
2022-11-30T18:58:46.939Z,2.30
2022-11-30T19:01:16.370Z,2.30
2022-11-30T19:03:43.526Z,2.30
2022-11-30T19:06:11.840Z,2.20
2022-11-30T19:08:39.931Z,2.20
2022-11-30T19:11:08.825Z,2.20
2022-11-30T19:13:36.101Z,2.30
2022-11-30T19:16:04.573Z,2.20
2022-11-30T19:18:31.710Z,2.30
2022-11-30T19:20:58.345Z,2.20
2022-11-30T19:23:25.188Z,2.20
2022-11-30T19:25:52.104Z,2.20
2022-11-30T19:28:19.779Z,2.20
2022-11-30T19:30:46.419Z,2.20
2022-11-30T19:33:14.235Z,1.90
2022-11-30T19:35:40.825Z,2.20
2022-11-30T19:38:07.442Z,2.20
2022-11-30T19:40:34.082Z,2.20
2022-11-30T19:43:00.721Z,2.30
2022-11-30T19:45:30.246Z,2.30
2022-11-30T19:47:56.802Z,2.40
2022-11-30T19:50:24.355Z,2.40
2022-11-30T19:52:50.931Z,2.50
2022-11-30T19:55:17.553Z,2.40
2022-11-30T19:57:44.736Z,2.40
2022-11-30T20:00:12.390Z,2.50
2022-11-30T20:02:38.974Z,2.50
2022-11-30T20:05:05.907Z,2.50
2022-11-30T20:07:32.534Z,2.40
2022-11-30T20:09:59.109Z,2.30
2022-11-30T20:12:25.676Z,2.30
2022-11-30T20:14:52.367Z,2.40
2022-11-30T20:17:18.913Z,2.30
2022-11-30T20:19:45.477Z,2.40
2022-11-30T20:22:12.025Z,2.40
2022-11-30T20:24:38.568Z,2.50
2022-11-30T20:27:05.176Z,2.40
2022-11-30T20:29:31.742Z,2.40
2022-11-30T20:31:58.361Z,2.40
2022-11-30T20:34:28.558Z,2.40
2022-11-30T20:36:57.705Z,2.40
2022-11-30T20:39:24.244Z,2.70
2022-11-30T20:41:50.851Z,2.50
2022-11-30T20:44:17.400Z,1.80
2022-11-30T20:46:44.114Z,2.30
2022-11-30T20:49:18.390Z,2.20
2022-11-30T20:51:46.750Z,2.30
2022-11-30T20:54:14.148Z,2.00
2022-11-30T20:56:41.390Z,2.40
2022-11-30T20:59:13.214Z,1.90
2022-11-30T21:01:45.878Z,2.40
2022-11-30T21:04:12.983Z,2.30
2022-11-30T21:06:40.492Z,2.30
2022-11-30T21:09:07.046Z,2.20
2022-11-30T21:11:34.002Z,2.20
2022-11-30T21:14:00.798Z,2.20
2022-11-30T21:16:29.651Z,2.30
2022-11-30T21:18:58.748Z,2.20
2022-11-30T21:21:28.339Z,2.20
2022-11-30T21:23:54.954Z,2.20
2022-11-30T21:26:33.022Z,2.20
2022-11-30T21:29:21.399Z,2.20
2022-11-30T21:31:48.026Z,2.20
2022-11-30T21:34:15.074Z,2.30
2022-11-30T21:36:41.789Z,2.20
2022-11-30T21:39:09.931Z,2.30
2022-11-30T21:41:39.260Z,2.30
2022-11-30T21:44:09.527Z,2.30
2022-11-30T21:46:37.718Z,2.30
2022-11-30T21:49:09.962Z,2.00
2022-11-30T21:51:36.930Z,2.20
2022-11-30T21:54:06.302Z,2.30
2022-11-30T21:56:36.501Z,2.30
2022-11-30T21:59:08.796Z,2.20
2022-11-30T22:01:38.428Z,2.20
2022-11-30T22:04:07.089Z,2.20
2022-11-30T22:06:35.631Z,2.20
2022-11-30T22:09:08.779Z,2.10
2022-11-30T22:11:41.767Z,2.00
2022-11-30T22:14:12.222Z,1.80
2022-11-30T22:16:39.470Z,1.80
2022-11-30T22:19:07.437Z,1.70
2022-11-30T22:21:35.173Z,1.70
2022-11-30T22:24:07.591Z,1.70
2022-11-30T22:26:39.272Z,1.70
2022-11-30T22:29:13.217Z,1.70
2022-11-30T22:31:42.340Z,1.70
2022-11-30T22:34:09.920Z,1.80
2022-11-30T22:36:38.718Z,1.80
2022-11-30T22:39:11.829Z,1.80
2022-11-30T22:41:40.117Z,2.20
2022-11-30T22:44:06.751Z,1.70
2022-11-30T22:46:35.064Z,2.30
2022-11-30T22:49:04.318Z,1.70
2022-11-30T22:51:32.786Z,1.80
2022-11-30T22:53:59.759Z,1.80
2022-11-30T22:56:35.436Z,1.50
2022-11-30T22:59:02.724Z,1.80
2022-11-30T23:01:34.711Z,1.80
2022-11-30T23:04:04.464Z,1.50
2022-11-30T23:06:31.708Z,1.70
2022-11-30T23:08:59.177Z,1.70
2022-11-30T23:11:26.691Z,1.60
2022-11-30T23:13:53.329Z,1.60
2022-11-30T23:16:21.067Z,1.60
2022-11-30T23:18:50.570Z,1.60
2022-11-30T23:21:20.153Z,1.40
2022-11-30T23:23:47.593Z,1.60
2022-11-30T23:26:18.909Z,1.60
2022-11-30T23:28:48.381Z,1.60
2022-11-30T23:31:34.128Z,1.50
2022-11-30T23:34:04.843Z,1.60
2022-11-30T23:36:32.406Z,1.60
2022-11-30T23:39:01.590Z,1.60
2022-11-30T23:41:28.538Z,1.60
2022-11-30T23:43:55.292Z,1.70
2022-11-30T23:46:22.453Z,1.60
2022-11-30T23:48:49.476Z,1.60
2022-11-30T23:51:16.057Z,1.60
2022-11-30T23:53:43.612Z,1.60
2022-11-30T23:56:14.238Z,1.60
2022-11-30T23:58:41.312Z,1.60
